sensor_id;sensor_type;location;lat;lon;timestamp;P1;durP1;ratioP1;P2;durP2;ratioP2
33421;SDS011;19763;55.798;37.782;2022-10-16T00:01:24;11.18;;;4.45;;
33421;SDS011;19763;55.798;37.782;2022-10-16T00:03:52;9.75;;;5.10;;
33421;SDS011;19763;55.798;37.782;2022-10-16T00:06:19;8.32;;;4.47;;
33421;SDS011;19763;55.798;37.782;2022-10-16T00:08:46;7.03;;;4.80;;
33421;SDS011;19763;55.798;37.782;2022-10-16T00:11:14;8.18;;;4.47;;
33421;SDS011;19763;55.798;37.782;2022-10-16T00:13:45;9.93;;;4.78;;
33421;SDS011;19763;55.798;37.782;2022-10-16T00:16:12;8.85;;;4.65;;
33421;SDS011;19763;55.798;37.782;2022-10-16T00:18:39;6.40;;;4.10;;
33421;SDS011;19763;55.798;37.782;2022-10-16T00:21:06;9.13;;;4.78;;
33421;SDS011;19763;55.798;37.782;2022-10-16T00:23:53;8.38;;;4.90;;
33421;SDS011;19763;55.798;37.782;2022-10-16T00:28:51;8.55;;;5.25;;
33421;SDS011;19763;55.798;37.782;2022-10-16T00:31:17;7.10;;;4.60;;
33421;SDS011;19763;55.798;37.782;2022-10-16T00:33:44;6.57;;;4.97;;
33421;SDS011;19763;55.798;37.782;2022-10-16T00:36:11;8.63;;;5.15;;
33421;SDS011;19763;55.798;37.782;2022-10-16T00:38:39;7.65;;;4.60;;
33421;SDS011;19763;55.798;37.782;2022-10-16T00:41:09;7.85;;;4.43;;
33421;SDS011;19763;55.798;37.782;2022-10-16T00:43:56;6.70;;;4.72;;
33421;SDS011;19763;55.798;37.782;2022-10-16T00:48:53;9.02;;;5.20;;
33421;SDS011;19763;55.798;37.782;2022-10-16T00:51:23;8.63;;;5.03;;
33421;SDS011;19763;55.798;37.782;2022-10-16T00:53:57;10.05;;;5.28;;
33421;SDS011;19763;55.798;37.782;2022-10-16T00:56:24;10.13;;;5.47;;
33421;SDS011;19763;55.798;37.782;2022-10-16T00:58:49;9.70;;;4.57;;
33421;SDS011;19763;55.798;37.782;2022-10-16T01:01:15;8.38;;;4.85;;
33421;SDS011;19763;55.798;37.782;2022-10-16T01:03:41;7.00;;;4.68;;
33421;SDS011;19763;55.798;37.782;2022-10-16T01:06:12;9.10;;;4.53;;
33421;SDS011;19763;55.798;37.782;2022-10-16T01:08:54;10.07;;;5.07;;
33421;SDS011;19763;55.798;37.782;2022-10-16T01:12:06;5.95;;;4.43;;
33421;SDS011;19763;55.798;37.782;2022-10-16T01:19:44;7.72;;;4.80;;
33421;SDS011;19763;55.798;37.782;2022-10-16T01:24:50;9.82;;;5.13;;
33421;SDS011;19763;55.798;37.782;2022-10-16T01:27:30;9.25;;;4.38;;
33421;SDS011;19763;55.798;37.782;2022-10-16T01:38:10;7.15;;;4.45;;
33421;SDS011;19763;55.798;37.782;2022-10-16T01:40:38;7.63;;;4.32;;
33421;SDS011;19763;55.798;37.782;2022-10-16T01:43:14;8.57;;;4.22;;
33421;SDS011;19763;55.798;37.782;2022-10-16T01:45:44;7.10;;;4.43;;
33421;SDS011;19763;55.798;37.782;2022-10-16T01:48:14;8.45;;;4.65;;
33421;SDS011;19763;55.798;37.782;2022-10-16T01:50:43;10.52;;;4.65;;
33421;SDS011;19763;55.798;37.782;2022-10-16T01:53:14;8.93;;;4.65;;
33421;SDS011;19763;55.798;37.782;2022-10-16T01:55:43;9.88;;;4.45;;
33421;SDS011;19763;55.798;37.782;2022-10-16T01:58:12;7.70;;;4.60;;
33421;SDS011;19763;55.798;37.782;2022-10-16T02:00:39;8.05;;;4.82;;
33421;SDS011;19763;55.798;37.782;2022-10-16T02:03:08;8.23;;;4.70;;
33421;SDS011;19763;55.798;37.782;2022-10-16T02:05:39;6.55;;;4.40;;
33421;SDS011;19763;55.798;37.782;2022-10-16T02:08:08;6.72;;;4.90;;
33421;SDS011;19763;55.798;37.782;2022-10-16T02:10:34;8.27;;;4.40;;
33421;SDS011;19763;55.798;37.782;2022-10-16T02:13:03;9.93;;;4.95;;
33421;SDS011;19763;55.798;37.782;2022-10-16T02:15:50;9.15;;;4.45;;
33421;SDS011;19763;55.798;37.782;2022-10-16T02:18:16;9.18;;;4.82;;
33421;SDS011;19763;55.798;37.782;2022-10-16T02:20:51;7.55;;;4.80;;
33421;SDS011;19763;55.798;37.782;2022-10-16T02:23:24;8.60;;;4.75;;
33421;SDS011;19763;55.798;37.782;2022-10-16T02:25:59;6.78;;;4.13;;
33421;SDS011;19763;55.798;37.782;2022-10-16T02:28:32;8.15;;;4.43;;
33421;SDS011;19763;55.798;37.782;2022-10-16T02:31:05;7.10;;;4.53;;
33421;SDS011;19763;55.798;37.782;2022-10-16T02:33:34;8.65;;;5.03;;
33421;SDS011;19763;55.798;37.782;2022-10-16T02:36:03;6.80;;;4.43;;
33421;SDS011;19763;55.798;37.782;2022-10-16T02:38:29;9.48;;;5.00;;
33421;SDS011;19763;55.798;37.782;2022-10-16T02:40:56;9.10;;;5.32;;
33421;SDS011;19763;55.798;37.782;2022-10-16T02:43:21;10.90;;;5.22;;
33421;SDS011;19763;55.798;37.782;2022-10-16T02:45:47;7.65;;;4.93;;
33421;SDS011;19763;55.798;37.782;2022-10-16T02:48:12;9.07;;;5.68;;
33421;SDS011;19763;55.798;37.782;2022-10-16T02:50:38;8.02;;;5.65;;
33421;SDS011;19763;55.798;37.782;2022-10-16T02:53:04;8.70;;;4.45;;
33421;SDS011;19763;55.798;37.782;2022-10-16T02:55:29;8.30;;;4.82;;
33421;SDS011;19763;55.798;37.782;2022-10-16T02:57:55;10.57;;;4.70;;
33421;SDS011;19763;55.798;37.782;2022-10-16T03:00:21;8.90;;;4.53;;
33421;SDS011;19763;55.798;37.782;2022-10-16T03:02:47;8.88;;;4.70;;
33421;SDS011;19763;55.798;37.782;2022-10-16T03:05:13;6.18;;;4.38;;
33421;SDS011;19763;55.798;37.782;2022-10-16T03:07:39;7.72;;;4.57;;
33421;SDS011;19763;55.798;37.782;2022-10-16T03:10:04;8.75;;;4.85;;
33421;SDS011;19763;55.798;37.782;2022-10-16T03:12:30;7.05;;;4.88;;
33421;SDS011;19763;55.798;37.782;2022-10-16T03:14:56;7.43;;;4.47;;
33421;SDS011;19763;55.798;37.782;2022-10-16T03:17:22;6.55;;;4.80;;
33421;SDS011;19763;55.798;37.782;2022-10-16T03:19:48;7.38;;;4.88;;
33421;SDS011;19763;55.798;37.782;2022-10-16T03:22:14;7.30;;;5.00;;
33421;SDS011;19763;55.798;37.782;2022-10-16T03:24:40;9.45;;;4.50;;
33421;SDS011;19763;55.798;37.782;2022-10-16T03:27:05;8.60;;;4.78;;
33421;SDS011;19763;55.798;37.782;2022-10-16T03:29:31;7.50;;;5.60;;
33421;SDS011;19763;55.798;37.782;2022-10-16T03:31:58;7.88;;;4.90;;
33421;SDS011;19763;55.798;37.782;2022-10-16T03:34:24;11.63;;;5.72;;
33421;SDS011;19763;55.798;37.782;2022-10-16T03:36:50;9.23;;;5.25;;
33421;SDS011;19763;55.798;37.782;2022-10-16T03:39:16;9.60;;;4.85;;
33421;SDS011;19763;55.798;37.782;2022-10-16T03:41:42;11.70;;;5.28;;
33421;SDS011;19763;55.798;37.782;2022-10-16T03:44:08;8.10;;;4.97;;
33421;SDS011;19763;55.798;37.782;2022-10-16T03:46:33;7.70;;;5.25;;
33421;SDS011;19763;55.798;37.782;2022-10-16T03:48:59;6.97;;;5.00;;
33421;SDS011;19763;55.798;37.782;2022-10-16T03:51:24;9.52;;;5.20;;
33421;SDS011;19763;55.798;37.782;2022-10-16T03:53:50;7.95;;;5.20;;
33421;SDS011;19763;55.798;37.782;2022-10-16T03:56:16;7.15;;;5.40;;
33421;SDS011;19763;55.798;37.782;2022-10-16T03:58:42;7.70;;;5.00;;
33421;SDS011;19763;55.798;37.782;2022-10-16T04:01:08;8.20;;;5.53;;
33421;SDS011;19763;55.798;37.782;2022-10-16T04:03:33;9.70;;;5.03;;
33421;SDS011;19763;55.798;37.782;2022-10-16T04:05:59;7.38;;;5.95;;
33421;SDS011;19763;55.798;37.782;2022-10-16T04:08:25;9.10;;;5.28;;
33421;SDS011;19763;55.798;37.782;2022-10-16T04:10:50;7.25;;;5.38;;
33421;SDS011;19763;55.798;37.782;2022-10-16T04:13:16;9.43;;;5.05;;
33421;SDS011;19763;55.798;37.782;2022-10-16T04:15:42;6.43;;;5.18;;
33421;SDS011;19763;55.798;37.782;2022-10-16T04:18:09;10.40;;;5.15;;
33421;SDS011;19763;55.798;37.782;2022-10-16T04:20:35;12.40;;;5.57;;
33421;SDS011;19763;55.798;37.782;2022-10-16T04:23:00;6.90;;;4.70;;
33421;SDS011;19763;55.798;37.782;2022-10-16T04:25:26;8.52;;;5.65;;
33421;SDS011;19763;55.798;37.782;2022-10-16T04:27:54;8.23;;;4.80;;
33421;SDS011;19763;55.798;37.782;2022-10-16T04:30:20;6.88;;;4.97;;
33421;SDS011;19763;55.798;37.782;2022-10-16T04:32:52;7.85;;;5.18;;
33421;SDS011;19763;55.798;37.782;2022-10-16T04:35:18;9.15;;;5.10;;
33421;SDS011;19763;55.798;37.782;2022-10-16T04:37:45;7.68;;;5.28;;
33421;SDS011;19763;55.798;37.782;2022-10-16T04:40:10;8.52;;;5.22;;
33421;SDS011;19763;55.798;37.782;2022-10-16T04:42:37;8.40;;;4.78;;
33421;SDS011;19763;55.798;37.782;2022-10-16T04:45:03;7.55;;;4.78;;
33421;SDS011;19763;55.798;37.782;2022-10-16T04:47:30;10.48;;;5.68;;
33421;SDS011;19763;55.798;37.782;2022-10-16T04:49:55;8.55;;;5.43;;
33421;SDS011;19763;55.798;37.782;2022-10-16T04:52:22;8.55;;;4.95;;
33421;SDS011;19763;55.798;37.782;2022-10-16T04:54:49;8.38;;;5.68;;
33421;SDS011;19763;55.798;37.782;2022-10-16T04:57:15;7.97;;;5.90;;
33421;SDS011;19763;55.798;37.782;2022-10-16T04:59:41;9.10;;;5.85;;
33421;SDS011;19763;55.798;37.782;2022-10-16T05:02:07;7.93;;;5.00;;
33421;SDS011;19763;55.798;37.782;2022-10-16T05:04:33;6.43;;;4.88;;
33421;SDS011;19763;55.798;37.782;2022-10-16T05:06:58;9.07;;;5.07;;
33421;SDS011;19763;55.798;37.782;2022-10-16T05:09:24;12.82;;;5.07;;
33421;SDS011;19763;55.798;37.782;2022-10-16T05:11:50;9.27;;;5.20;;
33421;SDS011;19763;55.798;37.782;2022-10-16T05:14:15;8.45;;;4.80;;
33421;SDS011;19763;55.798;37.782;2022-10-16T05:16:41;8.30;;;5.30;;
33421;SDS011;19763;55.798;37.782;2022-10-16T05:19:06;9.52;;;4.97;;
33421;SDS011;19763;55.798;37.782;2022-10-16T05:21:32;8.25;;;5.10;;
33421;SDS011;19763;55.798;37.782;2022-10-16T05:23:58;9.60;;;5.78;;
33421;SDS011;19763;55.798;37.782;2022-10-16T05:26:23;7.50;;;4.93;;
33421;SDS011;19763;55.798;37.782;2022-10-16T05:28:49;9.88;;;5.05;;
33421;SDS011;19763;55.798;37.782;2022-10-16T05:31:15;12.98;;;6.32;;
33421;SDS011;19763;55.798;37.782;2022-10-16T05:33:41;12.52;;;5.72;;
33421;SDS011;19763;55.798;37.782;2022-10-16T05:36:07;7.53;;;5.03;;
33421;SDS011;19763;55.798;37.782;2022-10-16T05:38:34;7.53;;;4.95;;
33421;SDS011;19763;55.798;37.782;2022-10-16T05:41:01;11.90;;;6.13;;
33421;SDS011;19763;55.798;37.782;2022-10-16T05:43:28;8.25;;;5.88;;
33421;SDS011;19763;55.798;37.782;2022-10-16T05:45:54;9.30;;;5.68;;
33421;SDS011;19763;55.798;37.782;2022-10-16T05:48:21;14.82;;;7.28;;
33421;SDS011;19763;55.798;37.782;2022-10-16T05:50:47;12.20;;;6.18;;
33421;SDS011;19763;55.798;37.782;2022-10-16T05:53:13;10.18;;;6.25;;
33421;SDS011;19763;55.798;37.782;2022-10-16T05:55:38;11.65;;;6.55;;
33421;SDS011;19763;55.798;37.782;2022-10-16T05:58:04;12.82;;;6.97;;
33421;SDS011;19763;55.798;37.782;2022-10-16T06:00:29;9.30;;;6.30;;
33421;SDS011;19763;55.798;37.782;2022-10-16T06:02:55;12.13;;;6.90;;
33421;SDS011;19763;55.798;37.782;2022-10-16T06:05:20;11.75;;;7.13;;
33421;SDS011;19763;55.798;37.782;2022-10-16T06:07:46;13.45;;;7.20;;
33421;SDS011;19763;55.798;37.782;2022-10-16T06:10:12;12.15;;;7.40;;
33421;SDS011;19763;55.798;37.782;2022-10-16T06:12:37;16.35;;;7.05;;
33421;SDS011;19763;55.798;37.782;2022-10-16T06:15:03;12.75;;;7.20;;
33421;SDS011;19763;55.798;37.782;2022-10-16T06:17:29;10.98;;;7.75;;
33421;SDS011;19763;55.798;37.782;2022-10-16T06:19:54;14.43;;;7.65;;
33421;SDS011;19763;55.798;37.782;2022-10-16T06:22:20;9.35;;;7.07;;
33421;SDS011;19763;55.798;37.782;2022-10-16T06:24:45;11.95;;;7.32;;
33421;SDS011;19763;55.798;37.782;2022-10-16T06:27:12;11.68;;;7.18;;
33421;SDS011;19763;55.798;37.782;2022-10-16T06:29:38;19.95;;;8.27;;
33421;SDS011;19763;55.798;37.782;2022-10-16T06:32:03;16.90;;;7.57;;
33421;SDS011;19763;55.798;37.782;2022-10-16T06:34:29;12.80;;;7.53;;
33421;SDS011;19763;55.798;37.782;2022-10-16T06:36:55;16.48;;;7.18;;
33421;SDS011;19763;55.798;37.782;2022-10-16T06:39:20;13.35;;;6.80;;
33421;SDS011;19763;55.798;37.782;2022-10-16T06:41:46;15.98;;;7.75;;
33421;SDS011;19763;55.798;37.782;2022-10-16T06:44:11;10.65;;;6.80;;
33421;SDS011;19763;55.798;37.782;2022-10-16T06:46:37;16.30;;;6.93;;
33421;SDS011;19763;55.798;37.782;2022-10-16T06:49:02;12.13;;;6.80;;
33421;SDS011;19763;55.798;37.782;2022-10-16T06:51:28;12.68;;;7.72;;
33421;SDS011;19763;55.798;37.782;2022-10-16T06:53:55;14.38;;;6.80;;
33421;SDS011;19763;55.798;37.782;2022-10-16T06:56:24;12.38;;;7.20;;
33421;SDS011;19763;55.798;37.782;2022-10-16T06:58:52;14.32;;;7.25;;
33421;SDS011;19763;55.798;37.782;2022-10-16T07:01:20;18.45;;;7.65;;
33421;SDS011;19763;55.798;37.782;2022-10-16T07:03:48;11.40;;;6.47;;
33421;SDS011;19763;55.798;37.782;2022-10-16T07:06:19;8.27;;;6.30;;
33421;SDS011;19763;55.798;37.782;2022-10-16T07:08:47;14.82;;;7.53;;
33421;SDS011;19763;55.798;37.782;2022-10-16T07:11:14;11.32;;;7.15;;
33421;SDS011;19763;55.798;37.782;2022-10-16T07:13:42;16.63;;;6.82;;
33421;SDS011;19763;55.798;37.782;2022-10-16T07:16:10;12.70;;;6.68;;
33421;SDS011;19763;55.798;37.782;2022-10-16T07:18:38;13.60;;;7.25;;
33421;SDS011;19763;55.798;37.782;2022-10-16T07:23:41;13.82;;;6.75;;
33421;SDS011;19763;55.798;37.782;2022-10-16T07:26:07;10.68;;;6.82;;
33421;SDS011;19763;55.798;37.782;2022-10-16T07:28:33;12.85;;;6.78;;
33421;SDS011;19763;55.798;37.782;2022-10-16T07:31:00;14.27;;;6.90;;
33421;SDS011;19763;55.798;37.782;2022-10-16T07:33:27;13.02;;;6.45;;
33421;SDS011;19763;55.798;37.782;2022-10-16T07:35:54;14.70;;;6.32;;
33421;SDS011;19763;55.798;37.782;2022-10-16T07:38:20;12.98;;;6.43;;
33421;SDS011;19763;55.798;37.782;2022-10-16T07:40:46;14.10;;;6.85;;
33421;SDS011;19763;55.798;37.782;2022-10-16T07:43:13;12.23;;;7.20;;
33421;SDS011;19763;55.798;37.782;2022-10-16T07:45:46;17.17;;;6.43;;
33421;SDS011;19763;55.798;37.782;2022-10-16T07:48:13;19.65;;;6.70;;
33421;SDS011;19763;55.798;37.782;2022-10-16T07:50:39;10.30;;;6.55;;
33421;SDS011;19763;55.798;37.782;2022-10-16T07:53:06;11.93;;;6.40;;
33421;SDS011;19763;55.798;37.782;2022-10-16T07:55:32;10.82;;;7.07;;
33421;SDS011;19763;55.798;37.782;2022-10-16T07:57:58;14.63;;;7.07;;
33421;SDS011;19763;55.798;37.782;2022-10-16T08:00:23;17.15;;;6.85;;
33421;SDS011;19763;55.798;37.782;2022-10-16T08:02:49;15.98;;;6.38;;
33421;SDS011;19763;55.798;37.782;2022-10-16T08:05:15;11.25;;;6.28;;
33421;SDS011;19763;55.798;37.782;2022-10-16T08:07:40;16.08;;;6.80;;
33421;SDS011;19763;55.798;37.782;2022-10-16T08:10:06;13.57;;;6.70;;
33421;SDS011;19763;55.798;37.782;2022-10-16T08:12:32;14.55;;;6.68;;
33421;SDS011;19763;55.798;37.782;2022-10-16T08:14:57;15.13;;;6.65;;
33421;SDS011;19763;55.798;37.782;2022-10-16T08:17:23;12.13;;;6.40;;
33421;SDS011;19763;55.798;37.782;2022-10-16T08:19:48;12.68;;;6.35;;
33421;SDS011;19763;55.798;37.782;2022-10-16T08:22:14;13.13;;;6.30;;
33421;SDS011;19763;55.798;37.782;2022-10-16T08:24:40;15.40;;;6.90;;
33421;SDS011;19763;55.798;37.782;2022-10-16T08:27:06;9.57;;;5.57;;
33421;SDS011;19763;55.798;37.782;2022-10-16T08:29:32;9.65;;;6.32;;
33421;SDS011;19763;55.798;37.782;2022-10-16T08:31:58;13.00;;;6.30;;
33421;SDS011;19763;55.798;37.782;2022-10-16T08:34:23;15.88;;;6.40;;
33421;SDS011;19763;55.798;37.782;2022-10-16T08:36:49;15.65;;;6.20;;
33421;SDS011;19763;55.798;37.782;2022-10-16T08:39:15;14.32;;;5.82;;
33421;SDS011;19763;55.798;37.782;2022-10-16T08:47:22;13.88;;;6.75;;
33421;SDS011;19763;55.798;37.782;2022-10-16T08:49:56;12.95;;;5.65;;
33421;SDS011;19763;55.798;37.782;2022-10-16T08:52:25;12.55;;;6.32;;
33421;SDS011;19763;55.798;37.782;2022-10-16T08:55:00;14.35;;;6.47;;
33421;SDS011;19763;55.798;37.782;2022-10-16T08:57:27;10.80;;;5.80;;
33421;SDS011;19763;55.798;37.782;2022-10-16T08:59:53;11.27;;;5.80;;
33421;SDS011;19763;55.798;37.782;2022-10-16T09:02:38;12.27;;;5.95;;
33421;SDS011;19763;55.798;37.782;2022-10-16T09:05:57;9.23;;;5.25;;
33421;SDS011;19763;55.798;37.782;2022-10-16T09:08:39;13.00;;;5.63;;
33421;SDS011;19763;55.798;37.782;2022-10-16T09:11:21;19.42;;;5.95;;
33421;SDS011;19763;55.798;37.782;2022-10-16T09:16:37;11.88;;;6.00;;
33421;SDS011;19763;55.798;37.782;2022-10-16T09:19:33;11.43;;;5.85;;
33421;SDS011;19763;55.798;37.782;2022-10-16T09:22:10;16.02;;;5.55;;
33421;SDS011;19763;55.798;37.782;2022-10-16T09:24:39;11.15;;;5.05;;
33421;SDS011;19763;55.798;37.782;2022-10-16T09:27:08;13.27;;;6.10;;
33421;SDS011;19763;55.798;37.782;2022-10-16T09:29:36;11.00;;;5.10;;
33421;SDS011;19763;55.798;37.782;2022-10-16T09:32:14;10.32;;;5.30;;
33421;SDS011;19763;55.798;37.782;2022-10-16T09:34:45;11.35;;;4.75;;
33421;SDS011;19763;55.798;37.782;2022-10-16T09:37:17;10.52;;;5.07;;
33421;SDS011;19763;55.798;37.782;2022-10-16T09:39:46;11.77;;;4.63;;
33421;SDS011;19763;55.798;37.782;2022-10-16T09:42:14;14.75;;;4.88;;
33421;SDS011;19763;55.798;37.782;2022-10-16T09:44:42;14.57;;;4.80;;
33421;SDS011;19763;55.798;37.782;2022-10-16T09:47:14;7.47;;;3.55;;
33421;SDS011;19763;55.798;37.782;2022-10-16T09:50:54;7.57;;;3.83;;
33421;SDS011;19763;55.798;37.782;2022-10-16T09:52:48;12.07;;;4.38;;
33421;SDS011;19763;55.798;37.782;2022-10-16T09:55:15;8.55;;;4.00;;
33421;SDS011;19763;55.798;37.782;2022-10-16T09:57:52;4.95;;;3.88;;
33421;SDS011;19763;55.798;37.782;2022-10-16T10:00:19;8.05;;;4.00;;
33421;SDS011;19763;55.798;37.782;2022-10-16T10:02:46;7.60;;;3.85;;
33421;SDS011;19763;55.798;37.782;2022-10-16T10:05:20;8.25;;;3.85;;
33421;SDS011;19763;55.798;37.782;2022-10-16T10:07:54;9.60;;;4.37;;
33421;SDS011;19763;55.798;37.782;2022-10-16T10:10:23;12.60;;;4.13;;
33421;SDS011;19763;55.798;37.782;2022-10-16T10:12:51;9.93;;;3.88;;
33421;SDS011;19763;55.798;37.782;2022-10-16T10:15:17;10.52;;;3.97;;
33421;SDS011;19763;55.798;37.782;2022-10-16T10:17:53;10.23;;;4.10;;
33421;SDS011;19763;55.798;37.782;2022-10-16T10:31:27;7.70;;;3.45;;
33421;SDS011;19763;55.798;37.782;2022-10-16T10:40:02;7.57;;;3.45;;
33421;SDS011;19763;55.798;37.782;2022-10-16T10:42:53;5.82;;;2.95;;
33421;SDS011;19763;55.798;37.782;2022-10-16T10:47:59;8.95;;;3.05;;
33421;SDS011;19763;55.798;37.782;2022-10-16T10:50:52;10.02;;;3.35;;
33421;SDS011;19763;55.798;37.782;2022-10-16T11:01:55;4.40;;;3.45;;
33421;SDS011;19763;55.798;37.782;2022-10-16T11:04:42;10.00;;;3.58;;
33421;SDS011;19763;55.798;37.782;2022-10-16T11:07:19;5.93;;;3.30;;
33421;SDS011;19763;55.798;37.782;2022-10-16T11:09:51;7.05;;;3.47;;
33421;SDS011;19763;55.798;37.782;2022-10-16T11:12:33;6.15;;;3.25;;
33421;SDS011;19763;55.798;37.782;2022-10-16T11:15:14;8.10;;;3.25;;
33421;SDS011;19763;55.798;37.782;2022-10-16T11:20:42;7.65;;;3.30;;
33421;SDS011;19763;55.798;37.782;2022-10-16T11:23:16;9.32;;;3.53;;
33421;SDS011;19763;55.798;37.782;2022-10-16T11:25:56;6.60;;;3.53;;
33421;SDS011;19763;55.798;37.782;2022-10-16T11:28:27;5.97;;;3.38;;
33421;SDS011;19763;55.798;37.782;2022-10-16T11:31:05;6.30;;;3.30;;
33421;SDS011;19763;55.798;37.782;2022-10-16T11:33:46;7.20;;;3.42;;
33421;SDS011;19763;55.798;37.782;2022-10-16T11:46:49;11.10;;;3.22;;
33421;SDS011;19763;55.798;37.782;2022-10-16T11:49:24;7.95;;;3.30;;
33421;SDS011;19763;55.798;37.782;2022-10-16T11:51:56;8.45;;;3.50;;
33421;SDS011;19763;55.798;37.782;2022-10-16T11:54:38;8.73;;;3.50;;
33421;SDS011;19763;55.798;37.782;2022-10-16T11:57:14;5.55;;;3.17;;
33421;SDS011;19763;55.798;37.782;2022-10-16T11:59:52;7.93;;;3.22;;
33421;SDS011;19763;55.798;37.782;2022-10-16T12:02:26;6.20;;;3.28;;
33421;SDS011;19763;55.798;37.782;2022-10-16T12:07:41;8.63;;;3.58;;
33421;SDS011;19763;55.798;37.782;2022-10-16T12:10:19;7.47;;;3.95;;
33421;SDS011;19763;55.798;37.782;2022-10-16T12:12:50;9.77;;;3.40;;
33421;SDS011;19763;55.798;37.782;2022-10-16T12:17:49;7.32;;;3.28;;
33421;SDS011;19763;55.798;37.782;2022-10-16T12:20:26;9.40;;;3.35;;
33421;SDS011;19763;55.798;37.782;2022-10-16T12:23:00;7.40;;;3.28;;
33421;SDS011;19763;55.798;37.782;2022-10-16T12:27:59;7.10;;;3.50;;
33421;SDS011;19763;55.798;37.782;2022-10-16T12:30:28;8.88;;;3.20;;
33421;SDS011;19763;55.798;37.782;2022-10-16T12:33:05;10.95;;;4.03;;
33421;SDS011;19763;55.798;37.782;2022-10-16T12:35:45;5.97;;;3.40;;
33421;SDS011;19763;55.798;37.782;2022-10-16T12:40:45;6.57;;;3.25;;
33421;SDS011;19763;55.798;37.782;2022-10-16T12:45:45;9.45;;;3.85;;
33421;SDS011;19763;55.798;37.782;2022-10-16T12:48:21;6.55;;;3.65;;
33421;SDS011;19763;55.798;37.782;2022-10-16T12:50:47;6.32;;;3.30;;
33421;SDS011;19763;55.798;37.782;2022-10-16T12:53:25;6.30;;;3.50;;
33421;SDS011;19763;55.798;37.782;2022-10-16T13:06:46;5.68;;;3.50;;
33421;SDS011;19763;55.798;37.782;2022-10-16T13:09:19;7.28;;;3.33;;
33421;SDS011;19763;55.798;37.782;2022-10-16T13:18:12;7.63;;;3.47;;
33421;SDS011;19763;55.798;37.782;2022-10-16T13:20:40;9.27;;;3.80;;
33421;SDS011;19763;55.798;37.782;2022-10-16T13:29:16;6.22;;;3.20;;
33421;SDS011;19763;55.798;37.782;2022-10-16T13:31:42;6.10;;;3.15;;
33421;SDS011;19763;55.798;37.782;2022-10-16T13:34:12;6.85;;;3.20;;
33421;SDS011;19763;55.798;37.782;2022-10-16T13:36:50;6.43;;;3.25;;
33421;SDS011;19763;55.798;37.782;2022-10-16T13:39:27;7.45;;;3.58;;
33421;SDS011;19763;55.798;37.782;2022-10-16T13:42:01;6.20;;;3.40;;
33421;SDS011;19763;55.798;37.782;2022-10-16T13:44:36;5.15;;;3.00;;
33421;SDS011;19763;55.798;37.782;2022-10-16T13:47:14;7.28;;;3.60;;
33421;SDS011;19763;55.798;37.782;2022-10-16T13:49:45;9.95;;;3.47;;
33421;SDS011;19763;55.798;37.782;2022-10-16T13:52:18;8.27;;;3.38;;
33421;SDS011;19763;55.798;37.782;2022-10-16T13:54:45;8.25;;;3.50;;
33421;SDS011;19763;55.798;37.782;2022-10-16T13:57:14;7.65;;;3.40;;
33421;SDS011;19763;55.798;37.782;2022-10-16T13:59:40;12.15;;;3.38;;
33421;SDS011;19763;55.798;37.782;2022-10-16T14:04:45;12.35;;;3.85;;
33421;SDS011;19763;55.798;37.782;2022-10-16T14:07:16;8.10;;;4.25;;
33421;SDS011;19763;55.798;37.782;2022-10-16T14:09:50;7.55;;;3.75;;
33421;SDS011;19763;55.798;37.782;2022-10-16T14:12:17;5.60;;;3.58;;
33421;SDS011;19763;55.798;37.782;2022-10-16T14:14:44;9.82;;;4.00;;
33421;SDS011;19763;55.798;37.782;2022-10-16T14:17:22;8.95;;;3.60;;
33421;SDS011;19763;55.798;37.782;2022-10-16T14:19:52;8.90;;;3.83;;
33421;SDS011;19763;55.798;37.782;2022-10-16T14:27:58;12.85;;;3.80;;
33421;SDS011;19763;55.798;37.782;2022-10-16T14:30:57;7.68;;;4.13;;
33421;SDS011;19763;55.798;37.782;2022-10-16T14:33:30;6.93;;;4.20;;
33421;SDS011;19763;55.798;37.782;2022-10-16T14:36:04;5.40;;;3.15;;
33421;SDS011;19763;55.798;37.782;2022-10-16T14:38:39;8.68;;;4.07;;
33421;SDS011;19763;55.798;37.782;2022-10-16T14:41:07;5.45;;;3.42;;
33421;SDS011;19763;55.798;37.782;2022-10-16T14:43:37;6.32;;;3.70;;
33421;SDS011;19763;55.798;37.782;2022-10-16T14:46:12;59.50;;;7.85;;
33421;SDS011;19763;55.798;37.782;2022-10-16T14:48:40;7.70;;;3.67;;
33421;SDS011;19763;55.798;37.782;2022-10-16T14:51:08;8.68;;;3.72;;
33421;SDS011;19763;55.798;37.782;2022-10-16T14:53:39;10.23;;;3.92;;
33421;SDS011;19763;55.798;37.782;2022-10-16T14:56:08;8.85;;;4.20;;
33421;SDS011;19763;55.798;37.782;2022-10-16T14:58:39;7.70;;;3.83;;
33421;SDS011;19763;55.798;37.782;2022-10-16T15:01:05;6.68;;;4.07;;
33421;SDS011;19763;55.798;37.782;2022-10-16T15:03:33;7.63;;;4.22;;
33421;SDS011;19763;55.798;37.782;2022-10-16T15:05:59;8.60;;;4.45;;
33421;SDS011;19763;55.798;37.782;2022-10-16T15:08:24;8.90;;;4.13;;
33421;SDS011;19763;55.798;37.782;2022-10-16T15:10:50;11.88;;;4.07;;
33421;SDS011;19763;55.798;37.782;2022-10-16T15:13:16;7.15;;;4.22;;
33421;SDS011;19763;55.798;37.782;2022-10-16T15:15:45;11.32;;;4.63;;
33421;SDS011;19763;55.798;37.782;2022-10-16T15:18:14;10.35;;;4.15;;
33421;SDS011;19763;55.798;37.782;2022-10-16T15:20:45;11.73;;;4.63;;
33421;SDS011;19763;55.798;37.782;2022-10-16T15:23:14;11.95;;;4.50;;
33421;SDS011;19763;55.798;37.782;2022-10-16T15:25:45;8.25;;;4.60;;
33421;SDS011;19763;55.798;37.782;2022-10-16T15:28:12;12.25;;;4.72;;
33421;SDS011;19763;55.798;37.782;2022-10-16T15:30:39;7.07;;;4.78;;
33421;SDS011;19763;55.798;37.782;2022-10-16T15:33:05;12.30;;;5.25;;
33421;SDS011;19763;55.798;37.782;2022-10-16T15:35:36;11.30;;;4.97;;
33421;SDS011;19763;55.798;37.782;2022-10-16T15:38:02;12.77;;;5.40;;
33421;SDS011;19763;55.798;37.782;2022-10-16T15:40:27;12.35;;;5.20;;
33421;SDS011;19763;55.798;37.782;2022-10-16T15:42:53;8.45;;;4.95;;
33421;SDS011;19763;55.798;37.782;2022-10-16T15:45:19;10.48;;;4.95;;
33421;SDS011;19763;55.798;37.782;2022-10-16T15:47:45;9.30;;;4.75;;
33421;SDS011;19763;55.798;37.782;2022-10-16T15:50:12;13.90;;;5.38;;
33421;SDS011;19763;55.798;37.782;2022-10-16T15:52:39;9.10;;;5.07;;
33421;SDS011;19763;55.798;37.782;2022-10-16T15:55:06;11.95;;;4.75;;
33421;SDS011;19763;55.798;37.782;2022-10-16T15:57:33;13.65;;;5.78;;
33421;SDS011;19763;55.798;37.782;2022-10-16T15:59:59;13.55;;;5.05;;
33421;SDS011;19763;55.798;37.782;2022-10-16T16:02:25;14.38;;;5.22;;
33421;SDS011;19763;55.798;37.782;2022-10-16T16:04:51;11.50;;;4.60;;
33421;SDS011;19763;55.798;37.782;2022-10-16T16:07:17;8.98;;;4.57;;
33421;SDS011;19763;55.798;37.782;2022-10-16T16:09:43;8.52;;;4.78;;
33421;SDS011;19763;55.798;37.782;2022-10-16T16:12:10;9.95;;;4.47;;
33421;SDS011;19763;55.798;37.782;2022-10-16T16:14:35;9.80;;;5.63;;
33421;SDS011;19763;55.798;37.782;2022-10-16T16:17:01;10.35;;;4.47;;
33421;SDS011;19763;55.798;37.782;2022-10-16T16:19:27;11.65;;;5.13;;
33421;SDS011;19763;55.798;37.782;2022-10-16T16:21:52;11.43;;;5.18;;
33421;SDS011;19763;55.798;37.782;2022-10-16T16:24:18;9.75;;;5.35;;
33421;SDS011;19763;55.798;37.782;2022-10-16T16:26:44;8.13;;;5.05;;
33421;SDS011;19763;55.798;37.782;2022-10-16T16:29:13;11.02;;;4.65;;
33421;SDS011;19763;55.798;37.782;2022-10-16T16:31:40;9.05;;;4.70;;
33421;SDS011;19763;55.798;37.782;2022-10-16T16:34:07;9.95;;;5.45;;
33421;SDS011;19763;55.798;37.782;2022-10-16T16:36:33;11.82;;;4.63;;
33421;SDS011;19763;55.798;37.782;2022-10-16T16:38:59;11.23;;;5.07;;